Time;durP1;ratioP1;P1;durP2;ratioP2;P2;SDS_P1;SDS_P2;PMS_P1;PMS_P2;Temp;Humidity;BMP_temperature;BMP_pressure;BME280_temperature;BME280_humidity;BME280_pressure;Samples;Min_cycle;Max_cycle;Signal;HPM_P1;HPM_P2
2023/03/22 00:01:10;;;;;;;13.82;6.57;;;;;;;;;;6270032;22;20166;-90
2023/03/22 00:04:15;;;;;;;11.38;6.10;;;;;;;;;;6290688;22;20228;-89
2023/03/22 00:07:20;;;;;;;17.90;6.43;;;;;;;;;;6290542;22;20192;-88
2023/03/22 00:10:26;;;;;;;9.82;5.68;;;;;;;;;;6291030;22;20178;-89
2023/03/22 00:13:32;;;;;;;13.13;5.95;;;;;;;;;;6272156;22;20173;-86
2023/03/22 00:16:38;;;;;;;12.68;5.78;;;;;;;;;;6290733;22;20162;-90
2023/03/22 00:19:45;;;;;;;11.02;5.60;;;;;;;;;;6289370;22;20223;-91
2023/03/22 00:22:56;;;;;;;16.70;6.20;;;;;;;;;;6288454;22;20236;-90
2023/03/22 00:26:01;;;;;;;15.05;6.85;;;;;;;;;;6290251;22;20179;-89
2023/03/22 00:29:06;;;;;;;17.75;6.25;;;;;;;;;;6290406;22;20518;-90
2023/03/22 00:32:14;;;;;;;14.15;6.75;;;;;;;;;;6290193;22;20166;-88
2023/03/22 00:35:19;;;;;;;11.32;6.00;;;;;;;;;;6289483;22;20189;-90
2023/03/22 00:38:35;;;;;;;15.50;6.22;;;;;;;;;;6288053;22;20219;-89
2023/03/22 00:41:41;;;;;;;11.43;6.00;;;;;;;;;;6288950;22;20191;-90
2023/03/22 00:44:46;;;;;;;14.48;6.65;;;;;;;;;;6286837;22;20166;-89
2023/03/22 00:47:53;;;;;;;16.27;7.18;;;;;;;;;;6270593;22;20190;-90
2023/03/22 00:50:58;;;;;;;18.13;7.93;;;;;;;;;;6285148;22;20162;-90
2023/03/22 00:54:03;;;;;;;14.20;6.68;;;;;;;;;;6283296;22;20165;-92
2023/03/22 00:57:09;;;;;;;16.48;6.63;;;;;;;;;;6284002;22;20145;-91
2023/03/22 01:00:14;;;;;;;15.50;6.68;;;;;;;;;;6284786;22;20216;-91
2023/03/22 01:03:26;;;;;;;18.10;6.90;;;;;;;;;;6284831;22;20170;-90
2023/03/22 01:06:32;;;;;;;16.30;6.68;;;;;;;;;;6285083;22;20237;-91
2023/03/22 01:09:37;;;;;;;12.30;6.70;;;;;;;;;;6284523;22;20236;-90
2023/03/22 01:12:42;;;;;;;14.00;6.10;;;;;;;;;;6287047;22;20197;-89
2023/03/22 01:15:50;;;;;;;13.27;7.55;;;;;;;;;;6268547;22;20244;-90
2023/03/22 01:18:57;;;;;;;24.67;7.65;;;;;;;;;;6267846;22;20243;-89
2023/03/22 01:22:03;;;;;;;16.15;7.43;;;;;;;;;;6267161;22;20689;-92
2023/03/22 01:25:08;;;;;;;17.45;7.32;;;;;;;;;;6287074;22;20162;-89
2023/03/22 01:28:14;;;;;;;14.05;6.82;;;;;;;;;;6288808;22;20189;-91
2023/03/22 01:31:19;;;;;;;16.98;7.22;;;;;;;;;;6286750;22;20177;-89
2023/03/22 01:34:26;;;;;;;13.75;7.63;;;;;;;;;;6286730;22;20186;-90
2023/03/22 01:37:32;;;;;;;13.75;7.10;;;;;;;;;;6267513;22;20170;-91
2023/03/22 01:40:38;;;;;;;12.68;7.20;;;;;;;;;;6285178;22;20169;-87
2023/03/22 01:43:43;;;;;;;14.27;7.30;;;;;;;;;;6268373;22;20631;-88
2023/03/22 01:46:52;;;;;;;14.45;7.35;;;;;;;;;;6288302;22;20205;-91
2023/03/22 01:50:00;;;;;;;12.40;6.80;;;;;;;;;;6289926;22;20236;-90
2023/03/22 01:53:08;;;;;;;19.23;7.13;;;;;;;;;;6291056;22;20290;-90
2023/03/22 01:56:15;;;;;;;15.30;8.55;;;;;;;;;;6288490;22;20191;-91
2023/03/22 01:59:20;;;;;;;20.60;8.35;;;;;;;;;;6290304;22;20173;-90
2023/03/22 02:06:08;;;;;;;18.83;9.10;;;;;;;;;;6271964;22;20169;-91
2023/03/22 02:09:15;;;;;;;21.40;6.78;;;;;;;;;;6288733;22;20193;-88
2023/03/22 02:12:26;;;;;;;12.82;6.75;;;;;;;;;;6288765;22;20497;-89
2023/03/22 02:15:38;;;;;;;14.30;7.25;;;;;;;;;;6288918;22;20166;-90
2023/03/22 02:19:07;;;;;;;14.27;7.90;;;;;;;;;;6271320;22;20811;-91
2023/03/22 02:22:37;;;;;;;13.60;6.75;;;;;;;;;;6287007;22;20169;-89
2023/03/22 02:26:06;;;;;;;13.80;7.03;;;;;;;;;;6285829;22;20166;-90
2023/03/22 02:29:15;;;;;;;12.57;6.80;;;;;;;;;;6268456;22;20219;-89
2023/03/22 02:32:27;;;;;;;14.38;7.20;;;;;;;;;;6268532;22;20297;-92
2023/03/22 02:35:39;;;;;;;15.80;7.47;;;;;;;;;;6266803;22;20192;-88
2023/03/22 02:39:03;;;;;;;16.40;7.07;;;;;;;;;;6286431;22;20181;-90
2023/03/22 02:42:17;;;;;;;17.88;7.75;;;;;;;;;;6286996;22;20170;-90
2023/03/22 02:45:27;;;;;;;15.65;7.00;;;;;;;;;;6285719;22;20231;-93
2023/03/22 02:48:36;;;;;;;13.68;7.03;;;;;;;;;;6282694;22;20174;-90
2023/03/22 02:51:43;;;;;;;13.68;6.95;;;;;;;;;;6285529;22;20230;-90
2023/03/22 02:54:53;;;;;;;12.68;6.85;;;;;;;;;;6286224;22;20173;-90
2023/03/22 02:58:02;;;;;;;15.05;6.68;;;;;;;;;;6268720;22;20316;-88
2023/03/22 03:01:12;;;;;;;12.77;6.65;;;;;;;;;;6266989;22;20705;-89
2023/03/22 03:04:18;;;;;;;12.68;6.80;;;;;;;;;;6284843;22;20157;-87
2023/03/22 03:07:26;;;;;;;14.55;6.90;;;;;;;;;;6286536;22;20161;-89
2023/03/22 03:10:32;;;;;;;12.82;6.63;;;;;;;;;;6287132;22;20272;-89
2023/03/22 03:13:43;;;;;;;18.05;7.38;;;;;;;;;;6285897;22;20285;-90
2023/03/22 03:16:51;;;;;;;14.13;7.07;;;;;;;;;;6285937;22;20166;-88
2023/03/22 03:20:11;;;;;;;11.65;7.13;;;;;;;;;;6287470;22;20198;-90
2023/03/22 03:23:23;;;;;;;13.80;6.65;;;;;;;;;;6287598;22;20252;-89
2023/03/22 03:26:31;;;;;;;14.40;7.45;;;;;;;;;;6287404;22;20166;-89
2023/03/22 03:29:42;;;;;;;17.58;7.63;;;;;;;;;;6287493;22;20165;-90
2023/03/22 03:32:51;;;;;;;17.13;6.65;;;;;;;;;;6286257;22;20154;-89
2023/03/22 03:35:59;;;;;;;11.82;6.65;;;;;;;;;;6287412;22;20640;-89
2023/03/22 03:39:06;;;;;;;16.77;7.30;;;;;;;;;;6288244;22;20202;-88
2023/03/22 03:42:13;;;;;;;17.90;7.30;;;;;;;;;;6290601;22;20174;-90
2023/03/22 03:45:20;;;;;;;16.40;6.90;;;;;;;;;;6288981;22;20177;-90
2023/03/22 03:48:29;;;;;;;13.77;7.10;;;;;;;;;;6289480;22;20169;-89
2023/03/22 03:51:45;;;;;;;12.63;6.50;;;;;;;;;;6290873;22;20166;-90
2023/03/22 03:54:51;;;;;;;19.63;7.40;;;;;;;;;;6289871;22;20281;-89
2023/03/22 03:58:02;;;;;;;15.13;6.82;;;;;;;;;;6287822;22;20228;-94
2023/03/22 04:01:10;;;;;;;14.55;6.70;;;;;;;;;;6288896;22;20145;-92
2023/03/22 04:04:37;;;;;;;13.18;6.80;;;;;;;;;;6290662;22;20166;-91
2023/03/22 04:07:43;;;;;;;13.88;7.00;;;;;;;;;;6289352;22;20169;-89
2023/03/22 04:10:50;;;;;;;11.00;6.13;;;;;;;;;;6288646;22;20213;-90
2023/03/22 04:13:57;;;;;;;14.27;6.90;;;;;;;;;;6270206;22;20213;-92
2023/03/22 04:17:03;;;;;;;12.48;6.93;;;;;;;;;;6287421;22;20165;-92
2023/03/22 04:20:48;;;;;;;12.90;6.20;;;;;;;;;;6287817;22;20196;-90
2023/03/22 04:23:54;;;;;;;16.15;6.10;;;;;;;;;;6270141;22;20173;-91
2023/03/22 04:27:00;;;;;;;14.20;6.43;;;;;;;;;;6289288;22;20212;-90
2023/03/22 04:30:29;;;;;;;11.70;6.07;;;;;;;;;;6290928;22;20178;-89
2023/03/22 04:33:45;;;;;;;12.45;6.50;;;;;;;;;;6289301;22;20169;-89
2023/03/22 04:37:02;;;;;;;12.00;6.40;;;;;;;;;;6288675;22;20186;-89
2023/03/22 04:40:16;;;;;;;15.63;6.95;;;;;;;;;;6268078;22;20244;-89
2023/03/22 04:43:40;;;;;;;16.70;8.35;;;;;;;;;;6289133;22;20171;-90
2023/03/22 04:46:52;;;;;;;15.97;7.20;;;;;;;;;;6289557;22;20169;-89
2023/03/22 04:49:59;;;;;;;17.52;7.47;;;;;;;;;;6287064;22;20158;-91
2023/03/22 04:53:08;;;;;;;18.83;8.33;;;;;;;;;;6286833;22;20161;-92
2023/03/22 04:56:14;;;;;;;18.35;7.32;;;;;;;;;;6288265;22;20166;-91
2023/03/22 04:59:21;;;;;;;22.33;8.77;;;;;;;;;;6286261;22;20339;-92
2023/03/22 05:02:28;;;;;;;25.23;9.17;;;;;;;;;;6284945;22;20178;-90
2023/03/22 05:05:36;;;;;;;19.73;8.27;;;;;;;;;;6286935;22;20161;-91
2023/03/22 05:08:42;;;;;;;18.93;8.87;;;;;;;;;;6286564;22;20181;-88
2023/03/22 05:11:47;;;;;;;15.07;8.70;;;;;;;;;;6288246;22;20185;-89
2023/03/22 05:15:47;;;;;;;13.77;8.00;;;;;;;;;;6287896;22;20220;-89
2023/03/22 05:18:56;;;;;;;14.87;7.70;;;;;;;;;;6290497;22;20190;-90
2023/03/22 05:22:03;;;;;;;17.83;8.80;;;;;;;;;;6270510;22;20209;-91
2023/03/22 05:25:21;;;;;;;14.80;7.03;;;;;;;;;;6289596;22;20613;-91
2023/03/22 05:28:27;;;;;;;14.93;7.37;;;;;;;;;;6286922;22;20192;-88
2023/03/22 05:31:52;;;;;;;18.80;7.63;;;;;;;;;;6288251;22;20241;-92
2023/03/22 05:35:02;;;;;;;15.17;8.03;;;;;;;;;;6286061;22;20204;-88
2023/03/22 05:38:14;;;;;;;16.50;8.00;;;;;;;;;;6271136;22;20161;-89
2023/03/22 05:41:24;;;;;;;18.10;9.07;;;;;;;;;;6288670;22;20158;-91
2023/03/22 05:44:30;;;;;;;14.87;8.07;;;;;;;;;;6286078;22;20165;-90
2023/03/22 05:47:43;;;;;;;18.63;9.07;;;;;;;;;;6287009;22;20284;-90
2023/03/22 05:50:51;;;;;;;14.20;7.93;;;;;;;;;;6287541;22;20324;-90
2023/03/22 05:53:58;;;;;;;20.07;9.13;;;;;;;;;;6286319;22;20166;-90
2023/03/22 05:57:11;;;;;;;21.67;8.47;;;;;;;;;;6270383;22;20178;-90
2023/03/22 06:00:18;;;;;;;26.70;7.72;;;;;;;;;;6287389;22;20648;-89
2023/03/22 06:03:45;;;;;;;15.73;7.37;;;;;;;;;;6266038;22;20185;-90
2023/03/22 06:06:58;;;;;;;14.27;6.90;;;;;;;;;;6287143;22;20170;-88
2023/03/22 06:10:25;;;;;;;16.77;8.18;;;;;;;;;;6289862;22;20186;-90
2023/03/22 06:13:30;;;;;;;126.72;14.15;;;;;;;;;;6272420;22;20256;-89
2023/03/22 06:16:36;;;;;;;153.60;16.88;;;;;;;;;;6271301;22;20170;-88
2023/03/22 06:19:42;;;;;;;186.05;17.73;;;;;;;;;;6272051;22;20201;-89
2023/03/22 06:23:00;;;;;;;71.63;10.65;;;;;;;;;;6274038;22;20169;-92
2023/03/22 06:26:10;;;;;;;16.55;6.80;;;;;;;;;;6271660;22;20532;-90
2023/03/22 06:29:19;;;;;;;14.50;7.07;;;;;;;;;;6290961;22;20228;-89
2023/03/22 06:32:25;;;;;;;16.38;7.35;;;;;;;;;;6289742;22;20166;-91
2023/03/22 06:35:31;;;;;;;20.85;7.25;;;;;;;;;;6292453;22;20550;-88
2023/03/22 06:38:37;;;;;;;16.00;8.57;;;;;;;;;;6273715;22;20232;-90
2023/03/22 06:41:44;;;;;;;15.18;7.68;;;;;;;;;;6292763;22;20169;-89
2023/03/22 06:44:49;;;;;;;13.48;7.00;;;;;;;;;;6289776;22;20173;-90
2023/03/22 06:48:08;;;;;;;13.70;6.78;;;;;;;;;;6288262;22;20150;-88
2023/03/22 06:51:26;;;;;;;26.08;9.65;;;;;;;;;;6271547;22;20608;-90
2023/03/22 06:54:32;;;;;;;14.50;7.05;;;;;;;;;;6290216;22;20234;-89
2023/03/22 06:57:40;;;;;;;15.88;7.68;;;;;;;;;;6287960;22;20166;-92
2023/03/22 07:00:48;;;;;;;18.42;7.38;;;;;;;;;;6287925;22;20313;-89
2023/03/22 07:03:56;;;;;;;15.43;6.60;;;;;;;;;;6290580;22;20196;-90
2023/03/22 07:07:02;;;;;;;18.30;7.85;;;;;;;;;;6289459;22;20165;-91
2023/03/22 07:10:08;;;;;;;17.20;7.07;;;;;;;;;;6288512;22;20771;-92
2023/03/22 07:13:14;;;;;;;13.55;6.75;;;;;;;;;;6271632;22;20289;-92
2023/03/22 07:16:20;;;;;;;16.83;7.20;;;;;;;;;;6272316;22;20269;-88
2023/03/22 07:19:31;;;;;;;14.65;7.80;;;;;;;;;;6271111;22;20190;-92
2023/03/22 07:23:19;;;;;;;18.13;8.25;;;;;;;;;;6270610;22;20165;-91
2023/03/22 07:26:29;;;;;;;55.45;13.88;;;;;;;;;;6286673;22;20166;-91
2023/03/22 07:29:38;;;;;;;28.48;10.85;;;;;;;;;;6269532;22;20185;-93
2023/03/22 07:32:44;;;;;;;39.88;11.95;;;;;;;;;;6269967;22;20165;-89
2023/03/22 07:35:51;;;;;;;15.38;7.70;;;;;;;;;;6270876;22;20193;-89
2023/03/22 07:38:56;;;;;;;19.08;7.13;;;;;;;;;;6286555;22;20186;-90
2023/03/22 07:42:09;;;;;;;13.38;7.28;;;;;;;;;;6285192;22;20254;-91
2023/03/22 07:45:39;;;;;;;16.90;6.78;;;;;;;;;;6289458;22;20178;-91
2023/03/22 07:49:04;;;;;;;51.35;21.95;;;;;;;;;;6287718;22;20212;-90
2023/03/22 07:52:37;;;;;;;23.67;8.43;;;;;;;;;;6285748;22;20165;-90
2023/03/22 07:55:43;;;;;;;16.35;6.30;;;;;;;;;;6287255;22;20153;-91
2023/03/22 07:58:48;;;;;;;11.77;5.90;;;;;;;;;;6288495;22;20158;-92
2023/03/22 08:01:59;;;;;;;14.13;6.25;;;;;;;;;;6287484;22;20233;-93
2023/03/22 08:05:09;;;;;;;14.25;6.50;;;;;;;;;;6288417;22;20170;-91
2023/03/22 08:08:22;;;;;;;10.98;6.10;;;;;;;;;;6288283;22;20186;-90
2023/03/22 08:11:27;;;;;;;21.73;9.45;;;;;;;;;;6287639;22;20169;-93
2023/03/22 08:14:33;;;;;;;26.30;8.70;;;;;;;;;;6286246;22;20165;-90
2023/03/22 08:17:40;;;;;;;15.80;6.75;;;;;;;;;;6286417;22;20162;-89
2023/03/22 08:20:55;;;;;;;14.27;6.63;;;;;;;;;;6284080;22;20185;-92
2023/03/22 08:24:04;;;;;;;15.63;6.30;;;;;;;;;;6267291;22;20168;-87
2023/03/22 08:27:33;;;;;;;13.23;7.68;;;;;;;;;;6271570;22;20187;-90
2023/03/22 08:30:40;;;;;;;13.48;6.07;;;;;;;;;;6288438;22;20170;-92
2023/03/22 08:33:48;;;;;;;15.55;6.45;;;;;;;;;;6289043;22;20170;-92
2023/03/22 08:36:55;;;;;;;13.93;7.47;;;;;;;;;;6269230;22;20150;-91
2023/03/22 08:40:00;;;;;;;13.43;6.80;;;;;;;;;;6290333;22;20196;-92
2023/03/22 08:43:14;;;;;;;12.52;8.23;;;;;;;;;;6289257;22;20201;-90
2023/03/22 08:46:19;;;;;;;15.35;7.97;;;;;;;;;;6288904;22;20162;-91
2023/03/22 08:49:27;;;;;;;11.65;6.93;;;;;;;;;;6289748;22;20165;-91
2023/03/22 08:52:41;;;;;;;13.50;7.43;;;;;;;;;;6291644;22;20165;-91
2023/03/22 08:55:56;;;;;;;10.90;6.43;;;;;;;;;;6292539;22;20277;-91
2023/03/22 08:59:18;;;;;;;12.02;6.45;;;;;;;;;;6274393;22;20166;-90
2023/03/22 09:02:53;;;;;;;13.70;6.25;;;;;;;;;;6271556;22;20621;-89
2023/03/22 09:06:01;;;;;;;12.52;6.22;;;;;;;;;;6276949;22;20177;-93
2023/03/22 09:09:15;;;;;;;11.05;6.55;;;;;;;;;;6294449;22;20234;-90
2023/03/22 09:12:23;;;;;;;8.55;5.75;;;;;;;;;;6294642;22;20157;-92
2023/03/22 09:15:42;;;;;;;11.05;5.68;;;;;;;;;;6294487;22;20145;-91
2023/03/22 09:18:57;;;;;;;14.65;6.63;;;;;;;;;;6276343;22;20147;-92
2023/03/22 09:22:04;;;;;;;9.32;5.75;;;;;;;;;;6294266;22;20236;-90
2023/03/22 09:25:18;;;;;;;11.27;5.90;;;;;;;;;;6292698;22;20161;-92
2023/03/22 09:28:26;;;;;;;9.73;5.47;;;;;;;;;;6293097;22;20217;-92
2023/03/22 09:31:35;;;;;;;12.52;5.97;;;;;;;;;;6274756;22;20158;-92
2023/03/22 09:35:02;;;;;;;11.18;6.03;;;;;;;;;;6275773;22;20632;-92
2023/03/22 09:38:18;;;;;;;9.00;5.78;;;;;;;;;;6292106;22;20490;-91
2023/03/22 09:41:26;;;;;;;7.78;5.18;;;;;;;;;;6292856;22;20197;-92
2023/03/22 09:44:34;;;;;;;8.10;5.45;;;;;;;;;;6293425;22;20651;-91
2023/03/22 09:47:45;;;;;;;9.73;5.60;;;;;;;;;;6292692;22;20162;-90
2023/03/22 09:50:53;;;;;;;13.70;5.68;;;;;;;;;;6275821;22;20266;-91
2023/03/22 09:54:00;;;;;;;9.55;5.45;;;;;;;;;;6296298;22;20519;-90
2023/03/22 09:57:09;;;;;;;8.38;5.45;;;;;;;;;;6291081;22;20169;-90
2023/03/22 10:00:19;;;;;;;10.73;5.80;;;;;;;;;;6291551;22;20648;-90
2023/03/22 10:03:29;;;;;;;12.25;5.35;;;;;;;;;;6291978;22;20221;-90
2023/03/22 10:06:34;;;;;;;10.13;5.30;;;;;;;;;;6273827;22;20273;-92
2023/03/22 10:09:47;;;;;;;6.95;4.88;;;;;;;;;;6293285;22;20141;-91
2023/03/22 10:13:04;;;;;;;14.95;5.63;;;;;;;;;;6295964;22;20170;-92
2023/03/22 10:16:20;;;;;;;7.60;4.63;;;;;;;;;;6296430;22;20194;-92
2023/03/22 10:19:28;;;;;;;11.95;5.50;;;;;;;;;;6275453;22;20150;-91
2023/03/22 10:22:42;;;;;;;10.18;5.30;;;;;;;;;;6293727;22;20144;-91
2023/03/22 10:25:51;;;;;;;13.18;5.10;;;;;;;;;;6275190;22;20173;-92
2023/03/22 10:29:00;;;;;;;8.32;5.00;;;;;;;;;;6293394;22;20219;-91
2023/03/22 10:32:17;;;;;;;11.65;5.25;;;;;;;;;;6292876;22;20185;-91
2023/03/22 10:35:23;;;;;;;7.68;4.60;;;;;;;;;;6292865;22;20192;-92
2023/03/22 10:38:29;;;;;;;12.25;5.55;;;;;;;;;;6293240;22;20166;-92
2023/03/22 10:41:38;;;;;;;8.30;5.60;;;;;;;;;;6274220;22;20180;-93
2023/03/22 10:44:48;;;;;;;9.85;5.03;;;;;;;;;;6290527;22;20185;-90
2023/03/22 10:47:58;;;;;;;7.65;5.47;;;;;;;;;;6293919;22;20526;-91
2023/03/22 10:51:04;;;;;;;7.72;5.00;;;;;;;;;;6292497;22;20193;-94
2023/03/22 10:54:13;;;;;;;6.70;4.90;;;;;;;;;;6293219;22;20169;-94
2023/03/22 10:57:20;;;;;;;8.88;5.03;;;;;;;;;;6272100;22;20169;-90
2023/03/22 11:00:27;;;;;;;10.93;5.13;;;;;;;;;;6292666;22;20157;-93
2023/03/22 11:04:10;;;;;;;13.50;5.00;;;;;;;;;;6295803;22;20144;-90
2023/03/22 11:07:17;;;;;;;16.75;5.13;;;;;;;;;;6294953;22;20187;-91
2023/03/22 11:10:28;;;;;;;8.52;5.47;;;;;;;;;;6293096;22;20193;-90
2023/03/22 11:14:02;;;;;;;11.50;5.78;;;;;;;;;;6292069;22;20169;-92
2023/03/22 11:17:12;;;;;;;7.35;4.53;;;;;;;;;;6294622;22;20165;-92
2023/03/22 11:20:21;;;;;;;8.40;5.03;;;;;;;;;;6294421;22;20177;-91
2023/03/22 11:23:28;;;;;;;16.85;5.07;;;;;;;;;;6274584;22;20191;-89
2023/03/22 11:26:34;;;;;;;7.68;4.50;;;;;;;;;;6292029;22;20180;-91
2023/03/22 11:29:40;;;;;;;8.40;4.43;;;;;;;;;;6293510;22;20172;-91
2023/03/22 11:33:00;;;;;;;7.13;4.45;;;;;;;;;;6294358;22;20216;-93
2023/03/22 11:36:20;;;;;;;7.20;3.97;;;;;;;;;;6297222;22;20188;-92
2023/03/22 11:39:29;;;;;;;7.13;4.05;;;;;;;;;;6276776;22;20149;-91
2023/03/22 11:42:35;;;;;;;7.43;3.75;;;;;;;;;;6292404;22;20169;-92
2023/03/22 11:45:42;;;;;;;9.02;4.30;;;;;;;;;;6293392;22;20188;-91
2023/03/22 11:48:51;;;;;;;6.32;3.90;;;;;;;;;;6276535;22;20189;-90
2023/03/22 11:51:57;;;;;;;8.55;4.90;;;;;;;;;;6272454;22;20236;-91
2023/03/22 11:58:26;;;;;;;7.65;4.00;;;;;;;;;;6274359;22;20150;-90
2023/03/22 12:02:02;;;;;;;13.70;5.07;;;;;;;;;;6274136;22;20168;-91
2023/03/22 12:05:12;;;;;;;14.90;4.55;;;;;;;;;;6274260;22;20161;-92
2023/03/22 12:08:20;;;;;;;8.10;4.43;;;;;;;;;;6298393;22;20173;-92
2023/03/22 12:11:28;;;;;;;7.07;4.30;;;;;;;;;;6278375;22;20181;-89
2023/03/22 12:14:35;;;;;;;6.57;3.75;;;;;;;;;;6294525;22;20166;-93
2023/03/22 12:17:45;;;;;;;9.32;4.57;;;;;;;;;;6293211;22;20161;-91
2023/03/22 12:20:54;;;;;;;21.58;4.88;;;;;;;;;;6294002;22;20164;-92
2023/03/22 12:24:03;;;;;;;4.78;3.72;;;;;;;;;;6294420;22;20169;-92
2023/03/22 12:30:57;;;;;;;6.80;3.80;;;;;;;;;;6275955;22;20219;-92
2023/03/22 12:34:05;;;;;;;84.97;6.82;;;;;;;;;;6294884;22;20176;-93
2023/03/22 12:37:16;;;;;;;5.03;3.72;;;;;;;;;;6279039;22;20191;-92
2023/03/22 12:40:27;;;;;;;18.17;4.47;;;;;;;;;;6277868;22;20184;-92
2023/03/22 12:43:46;;;;;;;8.95;3.97;;;;;;;;;;6296231;22;20204;-90
2023/03/22 12:46:53;;;;;;;19.58;4.47;;;;;;;;;;6261390;22;20173;-91
2023/03/22 12:50:01;;;;;;;10.00;3.97;;;;;;;;;;6276174;22;20169;-92
2023/03/22 12:53:07;;;;;;;7.70;4.00;;;;;;;;;;6294080;22;20174;-91
2023/03/22 12:56:19;;;;;;;7.72;4.05;;;;;;;;;;6292558;22;20161;-93
2023/03/22 12:59:33;;;;;;;7.20;3.97;;;;;;;;;;6291899;22;20249;-91
2023/03/22 13:03:05;;;;;;;7.70;3.65;;;;;;;;;;6276102;22;20161;-92
2023/03/22 13:06:30;;;;;;;9.70;3.72;;;;;;;;;;6292702;22;20194;-90
2023/03/22 13:09:39;;;;;;;12.30;3.75;;;;;;;;;;6279507;22;20204;-91
2023/03/22 13:13:07;;;;;;;9.50;3.80;;;;;;;;;;6279832;22;20519;-91
2023/03/22 13:16:21;;;;;;;5.43;3.38;;;;;;;;;;6293978;22;20255;-91
2023/03/22 13:19:37;;;;;;;13.07;3.85;;;;;;;;;;6293701;22;20177;-92
2023/03/22 13:27:02;;;;;;;5.63;3.70;;;;;;;;;;6294961;22;20179;-90
2023/03/22 13:30:17;;;;;;;3.83;2.67;;;;;;;;;;6277358;22;20188;-91
2023/03/22 13:34:04;;;;;;;;;;;;;;;;;;;;;
2023/03/22 13:37:24;;;;;;;5.35;2.80;;;;;;;;;;6276301;22;20169;-92
2023/03/22 13:40:33;;;;;;;4.75;2.75;;;;;;;;;;6293983;22;20180;-91
2023/03/22 13:43:49;;;;;;;9.68;2.88;;;;;;;;;;6294371;22;20161;-92
2023/03/22 13:46:58;;;;;;;7.03;3.10;;;;;;;;;;6295879;22;20166;-95
2023/03/22 13:50:15;;;;;;;3.58;2.85;;;;;;;;;;6276917;22;20612;-89
2023/03/22 13:53:24;;;;;;;5.93;2.97;;;;;;;;;;6293131;22;20304;-91
2023/03/22 13:56:33;;;;;;;9.57;3.10;;;;;;;;;;6275348;22;20660;-93
2023/03/22 13:59:55;;;;;;;8.88;3.08;;;;;;;;;;6294568;22;20173;-92
2023/03/22 14:03:08;;;;;;;7.28;2.92;;;;;;;;;;6278737;22;20222;-91
2023/03/22 14:06:26;;;;;;;5.07;3.00;;;;;;;;;;6295627;22;20208;-92
2023/03/22 14:09:50;;;;;;;3.92;2.42;;;;;;;;;;6276774;22;20504;-92
2023/03/22 14:12:57;;;;;;;6.80;3.00;;;;;;;;;;6292430;22;20192;-91
2023/03/22 14:16:08;;;;;;;7.18;2.90;;;;;;;;;;6293175;22;20169;-91
2023/03/22 14:19:18;;;;;;;9.23;2.88;;;;;;;;;;6293562;22;20230;-91
2023/03/22 14:22:29;;;;;;;18.38;8.45;;;;;;;;;;6292845;22;20177;-92
2023/03/22 14:25:35;;;;;;;13.13;5.43;;;;;;;;;;6292344;22;20166;-91
2023/03/22 14:28:40;;;;;;;6.72;3.20;;;;;;;;;;6290576;22;20630;-91
2023/03/22 14:31:46;;;;;;;22.48;2.72;;;;;;;;;;6274191;22;20235;-89
2023/03/22 14:34:55;;;;;;;3.72;2.83;;;;;;;;;;6293826;22;20193;-90
2023/03/22 14:38:02;;;;;;;9.25;2.75;;;;;;;;;;6292501;22;20601;-92
2023/03/22 14:41:08;;;;;;;8.70;2.70;;;;;;;;;;6291705;22;20668;-90
2023/03/22 14:44:13;;;;;;;4.70;2.33;;;;;;;;;;6291493;22;20216;-90
2023/03/22 14:47:27;;;;;;;3.40;2.35;;;;;;;;;;6292834;22;20223;-91
2023/03/22 14:50:35;;;;;;;5.40;2.72;;;;;;;;;;6275575;22;20206;-91
2023/03/22 14:53:42;;;;;;;21.20;3.83;;;;;;;;;;6294101;22;20173;-92
2023/03/22 14:56:47;;;;;;;6.45;3.10;;;;;;;;;;6292084;22;20165;-92
2023/03/22 14:59:53;;;;;;;4.53;2.50;;;;;;;;;;6292680;22;20165;-92
2023/03/22 15:03:00;;;;;;;3.90;2.60;;;;;;;;;;6274678;22;20173;-91
2023/03/22 15:06:10;;;;;;;8.48;2.70;;;;;;;;;;6294351;22;20157;-90
2023/03/22 15:09:19;;;;;;;12.88;3.05;;;;;;;;;;6295489;22;20177;-91
2023/03/22 15:12:25;;;;;;;6.25;2.95;;;;;;;;;;6293049;22;20201;-91
2023/03/22 15:16:08;;;;;;;4.03;2.80;;;;;;;;;;6276176;22;20188;-90
2023/03/22 15:19:15;;;;;;;20.08;4.88;;;;;;;;;;6277447;22;20185;-92
2023/03/22 15:22:27;;;;;;;5.63;3.30;;;;;;;;;;6292462;22;20204;-92
2023/03/22 15:25:35;;;;;;;11.15;3.30;;;;;;;;;;6292307;22;20169;-91
2023/03/22 15:28:46;;;;;;;6.63;3.85;;;;;;;;;;6292812;22;20162;-90
2023/03/22 15:31:52;;;;;;;5.95;3.35;;;;;;;;;;6293846;22;20232;-90
2023/03/22 15:34:58;;;;;;;9.35;2.95;;;;;;;;;;6295357;22;20189;-90
2023/03/22 15:38:06;;;;;;;4.47;2.55;;;;;;;;;;6277539;22;20169;-91
2023/03/22 15:41:23;;;;;;;3.63;2.40;;;;;;;;;;6278584;22;20146;-91
2023/03/22 15:44:30;;;;;;;5.93;2.70;;;;;;;;;;6276038;22;20165;-91
2023/03/22 15:47:45;;;;;;;5.38;2.15;;;;;;;;;;6296351;22;20181;-91
2023/03/22 15:51:07;;;;;;;8.43;2.85;;;;;;;;;;6297587;22;20615;-93
2023/03/22 17:01:46;;;;;;;36.13;10.70;;;;;;;;;;6279385;22;20207;-92
2023/03/22 17:04:51;;;;;;;57.90;18.95;;;;;;;;;;6274529;22;20170;-93
2023/03/22 17:07:57;;;;;;;69.88;20.17;;;;;;;;;;6271677;22;20169;-91
2023/03/22 17:11:01;;;;;;;45.33;13.73;;;;;;;;;;6272309;22;20252;-90
2023/03/22 17:14:12;;;;;;;35.25;12.68;;;;;;;;;;6271691;22;20194;-90
2023/03/22 17:17:19;;;;;;;77.53;25.80;;;;;;;;;;6276356;22;20161;-89
2023/03/22 17:20:37;;;;;;;44.10;15.13;;;;;;;;;;6273315;22;20250;-91
2023/03/22 17:23:43;;;;;;;22.77;8.95;;;;;;;;;;6273655;22;20165;-91
2023/03/22 17:26:49;;;;;;;17.88;8.68;;;;;;;;;;6275171;22;20169;-91
2023/03/22 17:29:54;;;;;;;24.83;6.88;;;;;;;;;;6291382;22;20214;-88
2023/03/22 17:33:01;;;;;;;13.00;5.70;;;;;;;;;;6288294;22;20189;-91
2023/03/22 17:36:08;;;;;;;55.50;21.08;;;;;;;;;;6289963;22;20170;-89
2023/03/22 17:39:13;;;;;;;33.45;13.52;;;;;;;;;;6273780;22;20541;-93
2023/03/22 17:42:19;;;;;;;28.33;10.85;;;;;;;;;;6276034;22;20248;-91
2023/03/22 17:45:25;;;;;;;29.38;10.95;;;;;;;;;;6274894;22;20173;-91
2023/03/22 17:48:32;;;;;;;23.08;9.18;;;;;;;;;;6275966;22;20149;-92
2023/03/22 17:51:40;;;;;;;15.25;6.80;;;;;;;;;;6293479;22;20212;-91
2023/03/22 17:54:46;;;;;;;20.73;8.80;;;;;;;;;;6292768;22;20169;-91
2023/03/22 17:57:52;;;;;;;16.88;7.13;;;;;;;;;;6288691;22;20209;-93
2023/03/22 18:00:59;;;;;;;16.30;6.22;;;;;;;;;;6293248;22;20189;-90
2023/03/22 18:04:07;;;;;;;13.43;5.45;;;;;;;;;;6277001;22;20173;-91
2023/03/22 18:07:12;;;;;;;10.70;5.25;;;;;;;;;;6293873;22;20162;-92
2023/03/22 18:10:18;;;;;;;13.00;5.13;;;;;;;;;;6294120;22;20217;-91
2023/03/22 18:13:25;;;;;;;48.03;19.75;;;;;;;;;;6275134;22;20193;-91
2023/03/22 18:16:31;;;;;;;13.63;5.88;;;;;;;;;;6274671;22;20197;-91
2023/03/22 18:19:38;;;;;;;7.88;5.00;;;;;;;;;;6276533;22;20166;-89
2023/03/22 18:22:43;;;;;;;9.30;5.45;;;;;;;;;;6295160;22;20161;-92
2023/03/22 18:25:57;;;;;;;15.43;6.88;;;;;;;;;;6293269;22;20214;-90
2023/03/22 18:29:03;;;;;;;11.77;4.47;;;;;;;;;;6292142;22;20166;-89
2023/03/22 18:32:10;;;;;;;17.40;6.40;;;;;;;;;;6275391;22;20267;-90
2023/03/22 18:35:17;;;;;;;12.07;5.13;;;;;;;;;;6294170;22;20161;-90
2023/03/22 18:38:23;;;;;;;18.23;5.47;;;;;;;;;;6293113;22;20174;-90
2023/03/22 18:41:29;;;;;;;12.25;4.53;;;;;;;;;;6275473;22;20213;-92
2023/03/22 18:44:34;;;;;;;11.75;5.55;;;;;;;;;;6275739;22;20184;-91
2023/03/22 18:47:40;;;;;;;17.40;5.93;;;;;;;;;;6291234;22;20166;-93
2023/03/22 18:50:46;;;;;;;13.95;5.40;;;;;;;;;;6291809;22;20206;-90
2023/03/22 18:53:52;;;;;;;15.88;5.75;;;;;;;;;;6290243;22;20197;-90
2023/03/22 18:56:59;;;;;;;15.98;7.32;;;;;;;;;;6272745;22;20514;-91
2023/03/22 19:00:05;;;;;;;21.35;7.70;;;;;;;;;;6290842;22;20281;-88
2023/03/22 19:03:11;;;;;;;14.48;7.13;;;;;;;;;;6292281;22;20227;-91
2023/03/22 19:06:18;;;;;;;17.55;6.32;;;;;;;;;;6292354;22;20165;-89
2023/03/22 19:09:26;;;;;;;15.73;5.80;;;;;;;;;;6291825;22;20188;-90
2023/03/22 19:12:31;;;;;;;12.20;5.75;;;;;;;;;;6271546;22;20637;-90
2023/03/22 19:15:37;;;;;;;13.57;4.95;;;;;;;;;;6290556;22;20146;-90
2023/03/22 19:18:43;;;;;;;11.30;4.90;;;;;;;;;;6292038;22;20182;-90
2023/03/22 19:22:23;;;;;;;14.98;5.95;;;;;;;;;;6270743;22;20182;-88
2023/03/22 19:25:30;;;;;;;8.15;4.20;;;;;;;;;;6290358;22;20162;-89
2023/03/22 19:28:35;;;;;;;8.05;4.47;;;;;;;;;;6291167;22;20203;-90
2023/03/22 19:31:40;;;;;;;10.63;4.80;;;;;;;;;;6291215;22;20166;-89
2023/03/22 19:34:46;;;;;;;12.45;5.25;;;;;;;;;;6291191;22;20189;-90
2023/03/22 19:37:51;;;;;;;13.93;4.80;;;;;;;;;;6293224;22;20595;-91
2023/03/22 19:41:07;;;;;;;15.98;4.95;;;;;;;;;;6276987;22;20210;-91
2023/03/22 19:44:12;;;;;;;10.93;5.00;;;;;;;;;;6294798;22;20189;-89
2023/03/22 19:47:18;;;;;;;9.50;4.50;;;;;;;;;;6294284;22;20552;-90
2023/03/22 19:50:24;;;;;;;11.07;5.35;;;;;;;;;;6293844;22;20245;-90
2023/03/22 19:53:30;;;;;;;10.07;4.53;;;;;;;;;;6293744;22;20312;-91
2023/03/22 19:56:38;;;;;;;10.75;4.82;;;;;;;;;;6293359;22;20162;-88
2023/03/22 19:59:44;;;;;;;10.20;4.80;;;;;;;;;;6275856;22;20664;-88
2023/03/22 20:02:54;;;;;;;14.65;5.95;;;;;;;;;;6276137;22;20192;-88
2023/03/22 20:06:03;;;;;;;14.07;5.72;;;;;;;;;;6292937;22;20181;-89
2023/03/22 20:09:08;;;;;;;13.52;5.05;;;;;;;;;;6292199;22;20169;-89
2023/03/22 20:12:19;;;;;;;11.98;5.70;;;;;;;;;;6273209;22;20234;-90